KDCY

Details ICAO KDCY
Name DAVIESS CO
Region United States
Timezone America/Indiana/Vincennes (UTC-5.0)
Plans Departing 0
Arriving 2
Stats Elevation 473 ft / 144 m (AMSL)
Location 38.700425° -87.129728°
Runways 1
Magnetic Variation 3.851° W
Sunrise 2017-12-18 13:02:48 UTC / 2017-12-18 08:02:48 Local
Sunset 2017-12-18 22:30:24 UTC / 2017-12-18 17:30:24 Local
Advertisement - Login to hide

Runways

ID Width Length Bearing (true) Bearing (mag) Surface Threshold Offset Overrun Length
18 75 ft / 23 m 4,630 ft / 1,411 m 180.00° 183.85° Asphalt 315 ft / 96 m 0 ft / 0 m
36 75 ft / 23 m 4,630 ft / 1,411 m 0.00° 3.85° Asphalt 0 ft / 0 m 0 ft / 0 m

Map

Weather


0- 5 10 15 20 25 30 35+ Temperature / ° C

Clouds and Precipitation
Forecast for 2017-12-18 18:00 UTC. Updated an hour ago

Ground ~20,000 ft ~40,000 ft Winds

METAR

KDCY 181435Z AUTO 22006KT 2 1/2SM -DZ OVC004 07/06 A3011 RMK AO2 T00680060

TAF

Not found

Frequencies

Unicom 122.80 MHz CTAF/UNICOM
Approach 125.60 MHz EVANSVILLE APP/DEP
Warning: Do not use this data for real-world aviation or navigation. No guarantee of current accuracy is given.